Merricourt, North Dakota
Current Conditions -  °F | °C
As of 2:56 PM on Friday 31 Oct 2014 (Local Time) from KJMS Reporting Station
Clear Clear  
Wind Chill: -2°   Ceiling: Unl
Heat Index:   Visibility: 10mi
Dew Point: -9°   Wind: 16mph
Humidity: 42%   Direction: 170°S
Pressure: 30.41"   Gusts: 23mph
Location:  46.2592°N, 98.7407°W
Report Text: KJMS 311956Z AUTO 17014G20KT 10SM CLR 03/M09 A3041 RMK AO2 SLP319 T00281089
Loading
Personal Weather Stations






























Interactive Weather Map
Tropical Storm Tracking
New forecast layout! Learn more

10-Day Weather Forecast

Advertisements
Track Severe Weather on mobile